createdAt,value
2022-07-29T00:00:35.938Z,98886.54
2022-07-29T00:03:10.714Z,98886.73
2022-07-29T00:05:44.569Z,98886.94
2022-07-29T00:08:17.396Z,98887.13
2022-07-29T00:10:50.463Z,98887.14
2022-07-29T00:13:32.372Z,98886.63
2022-07-29T00:16:06.375Z,98887.02
2022-07-29T00:18:38.876Z,98884.40
2022-07-29T00:21:11.414Z,98881.45
2022-07-29T00:23:44.071Z,98881.65
2022-07-29T00:26:16.519Z,98879.91
2022-07-29T00:28:49.851Z,98874.83
2022-07-29T00:31:22.911Z,98873.08
2022-07-29T00:33:55.892Z,98870.46
2022-07-29T00:36:31.141Z,98871.73
2022-07-29T00:39:03.488Z,98874.40
2022-07-29T00:41:35.660Z,98873.38
2022-07-29T00:44:08.295Z,98873.73
2022-07-29T00:46:40.795Z,98864.92
2022-07-29T00:49:13.716Z,98864.23
2022-07-29T00:51:46.604Z,98864.77
2022-07-29T00:54:19.371Z,98861.80
2022-07-29T00:56:53.003Z,98861.80
2022-07-29T00:59:25.350Z,98860.77
2022-07-29T01:02:07.838Z,98857.77
2022-07-29T01:04:41.238Z,98858.30
2022-07-29T01:07:14.094Z,98857.59
2022-07-29T01:09:47.352Z,98860.77
2022-07-29T01:12:28.661Z,98858.13
2022-07-29T01:15:01.462Z,98851.92
2022-07-29T01:17:38.609Z,98854.02
2022-07-29T01:20:19.029Z,98850.13
2022-07-29T01:23:08.218Z,98853.11
2022-07-29T01:26:00.657Z,98845.88
2022-07-29T01:28:54.946Z,98847.11
2022-07-29T01:31:36.572Z,98844.27
2022-07-29T01:34:15.307Z,98840.05
2022-07-29T01:36:51.295Z,98841.64
2022-07-29T01:39:28.787Z,98841.48
2022-07-29T01:42:08.143Z,98842.89
2022-07-29T01:44:44.190Z,98840.42
2022-07-29T01:47:20.262Z,98838.30
2022-07-29T01:49:59.083Z,98835.30
2022-07-29T01:52:33.442Z,98835.48
2022-07-29T01:55:12.301Z,98837.60
2022-07-29T01:57:48.286Z,98841.14
2022-07-29T02:00:21.356Z,98830.73
2022-07-29T02:02:54.635Z,98821.55
2022-07-29T02:05:28.337Z,98821.90
2022-07-29T02:08:02.766Z,98817.50
2022-07-29T02:10:36.861Z,98819.61
2022-07-29T02:13:11.744Z,98817.66
2022-07-29T02:15:45.743Z,98820.48
2022-07-29T02:18:20.491Z,98816.92
2022-07-29T02:20:54.987Z,98820.78
2022-07-29T02:23:28.743Z,98821.65
2022-07-29T02:26:02.337Z,98822.16
2022-07-29T02:28:37.790Z,98817.20
2022-07-29T02:31:10.249Z,98818.77
2022-07-29T02:33:44.788Z,98815.96
2022-07-29T02:36:19.627Z,98813.48
2022-07-29T02:38:52.623Z,98811.90
2022-07-29T02:41:30.803Z,98820.35
2022-07-29T02:44:08.169Z,98814.19
2022-07-29T02:46:52.387Z,98814.52
2022-07-29T02:49:37.142Z,98814.85
2022-07-29T02:52:15.569Z,98814.31
2022-07-29T02:55:01.174Z,98805.79
2022-07-29T02:57:54.152Z,98803.98
2022-07-29T03:00:30.697Z,98803.61
2022-07-29T03:03:06.275Z,98798.27
2022-07-29T03:05:39.025Z,98794.55
2022-07-29T03:08:13.632Z,98790.79
2022-07-29T03:10:48.259Z,98794.98
2022-07-29T03:13:20.674Z,98797.95
2022-07-29T03:15:53.586Z,98798.11
2022-07-29T03:18:26.834Z,98794.56
2022-07-29T03:20:59.180Z,98794.71
2022-07-29T03:23:35.167Z,98798.02
2022-07-29T03:26:09.285Z,98797.30
2022-07-29T03:28:41.229Z,98802.23
2022-07-29T03:31:13.721Z,98805.73
2022-07-29T03:33:46.368Z,98809.77
2022-07-29T03:36:18.230Z,98807.48
2022-07-29T03:38:52.355Z,98809.75
2022-07-29T03:41:27.445Z,98810.45
2022-07-29T03:44:00.053Z,98809.40
2022-07-29T03:46:33.354Z,98806.77
2022-07-29T03:49:09.391Z,98809.05
2022-07-29T03:51:41.794Z,98814.73
2022-07-29T03:54:14.620Z,98808.33
2022-07-29T03:56:49.092Z,98804.66
2022-07-29T03:59:22.403Z,98801.27
2022-07-29T04:01:55.202Z,98797.95
2022-07-29T04:04:27.337Z,98798.48
2022-07-29T04:07:01.005Z,98798.34
2022-07-29T04:09:34.754Z,98798.54
2022-07-29T04:12:07.643Z,98799.92
2022-07-29T04:14:40.482Z,98797.94
2022-07-29T04:17:12.988Z,98795.45
2022-07-29T04:19:44.946Z,98800.89
2022-07-29T04:22:16.908Z,98800.27
2022-07-29T04:24:48.741Z,98801.09
2022-07-29T04:27:20.882Z,98799.04
2022-07-29T04:29:56.515Z,98796.46
2022-07-29T04:32:32.657Z,98801.17
2022-07-29T04:35:05.248Z,98800.65
2022-07-29T04:37:37.223Z,98796.90
2022-07-29T04:40:12.909Z,98793.64
2022-07-29T04:42:46.846Z,98796.42
2022-07-29T04:45:22.539Z,98795.11
2022-07-29T04:47:54.959Z,98793.28
2022-07-29T04:50:27.217Z,98798.99
2022-07-29T04:53:00.171Z,98797.79
2022-07-29T04:55:32.223Z,98792.32
2022-07-29T04:58:05.302Z,98785.15
2022-07-29T05:00:38.553Z,98783.75
2022-07-29T05:03:10.731Z,98784.61
2022-07-29T05:05:44.829Z,98789.13
2022-07-29T05:08:17.018Z,98790.29
2022-07-29T05:10:49.522Z,98785.96
2022-07-29T05:13:21.375Z,98787.86
2022-07-29T05:15:53.680Z,98784.81
2022-07-29T05:18:26.762Z,98783.19
2022-07-29T05:20:59.607Z,98776.60
2022-07-29T05:23:32.384Z,98776.48
2022-07-29T05:26:04.646Z,98782.16
2022-07-29T05:28:38.908Z,98780.27
2022-07-29T05:31:10.998Z,98784.89
2022-07-29T05:33:44.120Z,98785.48
2022-07-29T05:36:16.365Z,98788.57
2022-07-29T05:38:48.915Z,98785.14
2022-07-29T05:41:20.885Z,98790.80
2022-07-29T05:43:53.140Z,98791.14
2022-07-29T05:46:25.734Z,98792.59
2022-07-29T05:49:00.195Z,98795.52
2022-07-29T05:51:32.502Z,98790.31
2022-07-29T05:54:05.217Z,98786.86
2022-07-29T05:56:38.271Z,98787.96
2022-07-29T05:59:17.908Z,98786.07
2022-07-29T06:01:50.874Z,98783.98
2022-07-29T06:04:23.201Z,98779.67
2022-07-29T06:06:56.213Z,98772.46
2022-07-29T06:09:29.315Z,98776.88
2022-07-29T06:12:02.223Z,98773.58
2022-07-29T06:14:34.263Z,98773.03
2022-07-29T06:17:07.173Z,98774.84
2022-07-29T06:19:40.359Z,98774.72
2022-07-29T06:22:13.172Z,98777.47
2022-07-29T06:24:45.895Z,98778.42
2022-07-29T06:27:19.496Z,98777.52
2022-07-29T06:29:51.592Z,98778.49
2022-07-29T06:32:24.164Z,98777.59
2022-07-29T06:35:36.162Z,98769.58
2022-07-29T06:37:55.321Z,98773.82
2022-07-29T06:40:49.898Z,98778.36
2022-07-29T06:43:21.923Z,98780.63
2022-07-29T06:45:55.268Z,98780.23
2022-07-29T06:48:28.169Z,98779.98
2022-07-29T06:51:01.054Z,98776.96
2022-07-29T06:53:33.533Z,98778.77
2022-07-29T06:56:09.421Z,98782.23
2022-07-29T06:58:41.742Z,98774.70
2022-07-29T07:01:14.297Z,98779.98
2022-07-29T07:03:48.197Z,98780.88
2022-07-29T07:06:20.486Z,98777.98
2022-07-29T07:08:53.191Z,98772.55
2022-07-29T07:11:25.607Z,98768.08
2022-07-29T07:14:02.657Z,98761.80
2022-07-29T07:16:35.928Z,98759.60
2022-07-29T07:19:08.724Z,98758.38
2022-07-29T07:21:41.408Z,98760.89
2022-07-29T07:24:14.016Z,98765.39
2022-07-29T07:26:46.237Z,98766.59
2022-07-29T07:29:18.308Z,98768.55
2022-07-29T07:31:50.332Z,98770.31
2022-07-29T07:34:29.642Z,98774.19
2022-07-29T07:37:02.507Z,98772.58
2022-07-29T07:39:34.689Z,98771.86
2022-07-29T07:42:07.980Z,98768.65
2022-07-29T07:45:03.784Z,98766.79
2022-07-29T07:47:32.890Z,98763.56
2022-07-29T07:50:08.565Z,98764.12
2022-07-29T07:52:50.353Z,98766.31
2022-07-29T07:55:25.460Z,98765.16
2022-07-29T07:57:58.024Z,98767.46
2022-07-29T08:00:31.862Z,98760.65
2022-07-29T08:03:04.567Z,98762.52
2022-07-29T08:05:49.456Z,98766.20
2022-07-29T08:08:21.988Z,98762.13
2022-07-29T08:10:54.729Z,98758.44
2022-07-29T08:13:31.484Z,98760.79
2022-07-29T08:16:12.628Z,98758.04
2022-07-29T08:18:46.451Z,98766.70
2022-07-29T08:21:18.705Z,98765.52
2022-07-29T08:24:00.777Z,98765.31
2022-07-29T08:26:35.587Z,98759.16
2022-07-29T08:29:08.039Z,98763.17
2022-07-29T08:31:40.856Z,98767.20
2022-07-29T08:34:13.320Z,98760.73
2022-07-29T08:36:46.036Z,98750.70
2022-07-29T08:39:23.011Z,98747.96
2022-07-29T08:41:57.227Z,98746.58
2022-07-29T08:44:31.319Z,98751.86
2022-07-29T08:47:03.611Z,98750.67
2022-07-29T08:49:37.395Z,98747.88
2022-07-29T08:52:11.811Z,98739.86
2022-07-29T08:54:47.152Z,98745.98
2022-07-29T08:57:20.677Z,98748.99
2022-07-29T08:59:55.560Z,98744.39
2022-07-29T09:02:29.011Z,98747.81
2022-07-29T09:05:02.404Z,98747.83
2022-07-29T09:07:37.331Z,98749.09
2022-07-29T09:10:11.182Z,98751.90
2022-07-29T09:12:43.488Z,98756.88
2022-07-29T09:15:15.628Z,98752.69
2022-07-29T09:17:50.237Z,98751.52
2022-07-29T09:20:24.144Z,98746.86
2022-07-29T09:22:59.356Z,98738.44
2022-07-29T09:25:39.098Z,98738.15
2022-07-29T09:28:12.787Z,98738.63
2022-07-29T09:30:54.491Z,98730.67
2022-07-29T09:33:35.514Z,98729.34
2022-07-29T09:36:09.366Z,98733.67
2022-07-29T09:38:41.364Z,98730.25
2022-07-29T09:41:15.249Z,98722.66
2022-07-29T09:43:58.076Z,98727.11
2022-07-29T09:46:30.584Z,98724.59
2022-07-29T09:49:18.906Z,98716.79
2022-07-29T09:51:51.651Z,98713.92
2022-07-29T09:54:28.166Z,98709.70
2022-07-29T09:57:00.321Z,98707.59
2022-07-29T09:59:33.065Z,98697.55
2022-07-29T10:02:05.253Z,98700.54
2022-07-29T10:04:44.932Z,98706.27
2022-07-29T10:07:17.479Z,98700.86
2022-07-29T10:09:59.515Z,98694.60
2022-07-29T10:12:31.749Z,98691.36
2022-07-29T10:15:06.227Z,98693.80
2022-07-29T10:17:40.528Z,98688.63
2022-07-29T10:20:16.441Z,98688.90
2022-07-29T10:22:53.358Z,98687.60
2022-07-29T10:25:27.542Z,98686.66
2022-07-29T10:28:00.494Z,98682.70
2022-07-29T10:30:32.923Z,98681.08
2022-07-29T10:33:18.167Z,98682.98
2022-07-29T10:36:01.192Z,98679.86
2022-07-29T10:38:51.923Z,98679.88
2022-07-29T10:41:49.981Z,98679.97
2022-07-29T10:44:24.039Z,98678.52
2022-07-29T10:46:57.730Z,98677.11
2022-07-29T10:49:31.229Z,98675.16
2022-07-29T10:52:09.719Z,98670.77
2022-07-29T10:54:55.426Z,98668.04
2022-07-29T10:57:52.481Z,98663.25
2022-07-29T11:00:36.790Z,98662.40
2022-07-29T11:03:10.836Z,98657.66
2022-07-29T11:05:59.767Z,98661.53
2022-07-29T11:08:35.290Z,98660.91
2022-07-29T11:11:44.176Z,98664.65
2022-07-29T11:15:00.448Z,98667.71
2022-07-29T11:17:47.239Z,98661.19
2022-07-29T11:20:40.130Z,98661.71
2022-07-29T11:23:33.852Z,98665.10
2022-07-29T11:26:23.183Z,98659.46
2022-07-29T11:29:03.391Z,98655.70
2022-07-29T11:31:42.712Z,98652.02
2022-07-29T11:34:28.238Z,98650.39
2022-07-29T11:37:29.485Z,98650.70
2022-07-29T11:40:21.361Z,98655.61
2022-07-29T11:42:55.205Z,98656.67
2022-07-29T11:45:43.393Z,98655.01
2022-07-29T11:48:31.475Z,98653.16
2022-07-29T11:51:13.425Z,98656.94
2022-07-29T11:53:52.687Z,98651.07
2022-07-29T11:56:25.838Z,98654.08
2022-07-29T11:59:08.332Z,98647.52
2022-07-29T12:02:18.052Z,98648.55
2022-07-29T12:04:55.296Z,98648.42
2022-07-29T12:07:32.556Z,98643.96
2022-07-29T12:10:11.473Z,98648.13
2022-07-29T12:13:02.626Z,98648.91
2022-07-29T12:15:46.098Z,98642.14
2022-07-29T12:18:23.931Z,98637.55
2022-07-29T12:21:04.893Z,98642.90
2022-07-29T12:23:38.090Z,98638.70
2022-07-29T12:26:21.947Z,98643.16
2022-07-29T12:28:58.300Z,98639.09
2022-07-29T12:31:43.829Z,98636.76
2022-07-29T12:34:17.751Z,98635.37
2022-07-29T12:36:49.834Z,98633.63
2022-07-29T12:39:22.244Z,98628.07
2022-07-29T12:42:04.474Z,98631.80
2022-07-29T12:44:50.966Z,98630.33
2022-07-29T12:47:24.129Z,98628.17
2022-07-29T12:50:12.981Z,98631.90
2022-07-29T12:52:51.918Z,98635.95
2022-07-29T12:55:50.113Z,98630.73
2022-07-29T12:58:37.054Z,98621.77
2022-07-29T13:01:17.469Z,98618.63
2022-07-29T13:03:56.708Z,98623.19
2022-07-29T13:06:39.044Z,98618.67
2022-07-29T13:09:16.207Z,98615.20
2022-07-29T13:11:50.238Z,98611.86
2022-07-29T13:14:35.708Z,98613.75
2022-07-29T13:17:11.666Z,98615.48
2022-07-29T13:19:45.036Z,98610.16
2022-07-29T13:22:19.034Z,98612.19
2022-07-29T13:24:55.117Z,98610.72
2022-07-29T13:27:28.919Z,98604.89
2022-07-29T13:30:02.030Z,98594.86
2022-07-29T13:32:35.970Z,98593.14
2022-07-29T13:35:11.086Z,98587.23
2022-07-29T13:37:45.581Z,98592.09
2022-07-29T13:40:18.256Z,98583.38
2022-07-29T13:42:52.008Z,98568.63
2022-07-29T13:45:24.356Z,98565.68
2022-07-29T13:48:01.527Z,98560.38
2022-07-29T13:50:34.224Z,98552.64
2022-07-29T13:53:08.251Z,98550.08
2022-07-29T13:55:40.339Z,98543.95
2022-07-29T13:58:12.825Z,98542.52
2022-07-29T14:00:44.801Z,98541.16
2022-07-29T14:03:17.451Z,98538.95
2022-07-29T14:05:49.664Z,98533.71
2022-07-29T14:08:25.289Z,98531.11
2022-07-29T14:10:58.012Z,98530.89
2022-07-29T14:13:30.196Z,98523.33
2022-07-29T14:16:02.817Z,98524.88
2022-07-29T14:18:34.815Z,98518.45
2022-07-29T14:21:07.393Z,98522.05
2022-07-29T14:23:39.160Z,98526.96
2022-07-29T14:26:19.581Z,98520.48
2022-07-29T14:28:54.510Z,98517.98
2022-07-29T14:31:27.111Z,98519.60
2022-07-29T14:34:02.709Z,98519.14
2022-07-29T14:36:36.053Z,98520.18
2022-07-29T14:39:08.406Z,98516.55
2022-07-29T14:41:40.718Z,98517.64
2022-07-29T14:44:13.279Z,98514.04
2022-07-29T14:46:47.695Z,98512.95
2022-07-29T14:49:22.083Z,98508.71
2022-07-29T14:51:54.082Z,98507.55
2022-07-29T14:54:26.753Z,98505.75
2022-07-29T14:56:59.160Z,98504.83
2022-07-29T14:59:32.261Z,98499.34
2022-07-29T15:02:05.294Z,98495.55
2022-07-29T15:04:37.560Z,98494.78
2022-07-29T15:07:10.556Z,98494.59
2022-07-29T15:09:49.633Z,98496.38
2022-07-29T15:12:24.642Z,98498.89
2022-07-29T15:14:57.149Z,98499.21
2022-07-29T15:17:30.008Z,98508.50
2022-07-29T15:20:04.545Z,98508.83
2022-07-29T15:22:36.919Z,98513.48
2022-07-29T15:25:13.764Z,98513.14
2022-07-29T15:27:52.153Z,98520.52
2022-07-29T15:30:31.571Z,98523.73
2022-07-29T15:33:09.545Z,98522.73
2022-07-29T15:35:43.552Z,98530.03
2022-07-29T15:38:15.906Z,98531.63
2022-07-29T15:40:47.971Z,98534.45
2022-07-29T15:43:20.359Z,98543.20
2022-07-29T15:46:06.395Z,98541.23
2022-07-29T15:48:41.892Z,98545.99
2022-07-29T15:51:14.169Z,98546.42
2022-07-29T15:53:53.533Z,98542.80
2022-07-29T15:56:27.295Z,98543.14
2022-07-29T15:58:59.614Z,98545.25
2022-07-29T16:01:34.310Z,98545.94
2022-07-29T16:04:07.218Z,98544.94
2022-07-29T16:06:39.665Z,98544.76
2022-07-29T16:09:12.620Z,98546.85
2022-07-29T16:11:46.591Z,98548.09
2022-07-29T16:14:20.890Z,98548.71
2022-07-29T16:16:55.469Z,98548.06
2022-07-29T16:19:28.003Z,98546.15
2022-07-29T16:22:00.935Z,98541.29
2022-07-29T16:24:34.076Z,98546.32
2022-07-29T16:27:08.738Z,98547.59
2022-07-29T16:29:41.069Z,98545.36
2022-07-29T16:32:15.035Z,98548.04
2022-07-29T16:34:58.740Z,98548.55
2022-07-29T16:37:36.188Z,98552.12
2022-07-29T16:40:11.726Z,98556.20
2022-07-29T16:42:47.050Z,98568.38
2022-07-29T16:45:21.290Z,98582.54
2022-07-29T16:47:58.459Z,98602.86
2022-07-29T16:50:33.752Z,98609.95
2022-07-29T16:53:06.117Z,98600.88
2022-07-29T16:55:42.430Z,98597.12
2022-07-29T16:58:14.958Z,98596.45
2022-07-29T17:00:47.450Z,98593.23
2022-07-29T17:03:21.296Z,98595.92
2022-07-29T17:05:54.259Z,98596.68
2022-07-29T17:08:26.911Z,98599.64
2022-07-29T17:10:58.981Z,98601.36
2022-07-29T17:13:31.376Z,98609.66
2022-07-29T17:16:04.271Z,98615.83
2022-07-29T17:18:37.137Z,98616.73
2022-07-29T17:21:09.381Z,98620.84
2022-07-29T17:23:41.779Z,98623.05
2022-07-29T17:26:14.550Z,98623.66
2022-07-29T17:28:48.561Z,98623.98
2022-07-29T17:31:21.321Z,98621.31
2022-07-29T17:33:56.053Z,98617.94
2022-07-29T17:36:31.745Z,98621.99
2022-07-29T17:39:05.849Z,98626.06
2022-07-29T17:41:38.348Z,98629.42
2022-07-29T17:44:12.286Z,98625.89
2022-07-29T17:46:44.413Z,98623.81
2022-07-29T17:49:16.684Z,98625.38
2022-07-29T17:51:48.792Z,98628.85
2022-07-29T17:54:20.889Z,98638.52
2022-07-29T17:56:52.826Z,98639.80
2022-07-29T17:59:25.255Z,98642.32
2022-07-29T18:01:57.427Z,98646.45
2022-07-29T18:04:31.183Z,98646.14
2022-07-29T18:07:03.264Z,98649.89
2022-07-29T18:09:37.153Z,98645.38
2022-07-29T18:12:11.106Z,98645.71
2022-07-29T18:14:44.024Z,98644.27
2022-07-29T18:17:17.037Z,98635.58
2022-07-29T18:19:49.807Z,98629.58
2022-07-29T18:22:22.545Z,98619.92
2022-07-29T18:24:55.403Z,98608.54
2022-07-29T18:27:27.669Z,98601.75
2022-07-29T18:30:04.585Z,98605.42
2022-07-29T18:32:38.837Z,98610.37
2022-07-29T18:35:11.931Z,98608.16
2022-07-29T18:38:00.833Z,98606.49
2022-07-29T18:40:35.452Z,98604.81
2022-07-29T18:43:09.604Z,98610.77
2022-07-29T18:45:42.472Z,98614.85
2022-07-29T18:48:14.658Z,98622.42
2022-07-29T18:50:48.076Z,98623.41
2022-07-29T18:53:20.325Z,98628.13
2022-07-29T18:55:52.239Z,98627.15
2022-07-29T18:58:24.193Z,98626.17
2022-07-29T19:00:56.469Z,98622.66
2022-07-29T19:03:29.314Z,98625.34
2022-07-29T19:06:03.483Z,98624.14
2022-07-29T19:08:36.711Z,98625.95
2022-07-29T19:11:09.639Z,98626.33
2022-07-29T19:13:42.181Z,98628.31
2022-07-29T19:16:15.750Z,98633.50
2022-07-29T19:18:49.156Z,98642.24
2022-07-29T19:21:21.567Z,98648.30
2022-07-29T19:24:05.864Z,98651.44
2022-07-29T19:26:46.512Z,98654.23
2022-07-29T19:29:19.039Z,98647.81
2022-07-29T19:31:51.239Z,98639.48
2022-07-29T19:34:23.325Z,98637.70
2022-07-29T19:36:55.931Z,98638.76
2022-07-29T19:39:34.829Z,98647.64
2022-07-29T19:42:08.472Z,98652.08
2022-07-29T19:44:41.156Z,98655.11
2022-07-29T19:47:17.166Z,98656.87
2022-07-29T19:49:49.929Z,98649.77
2022-07-29T19:52:24.609Z,98646.03
2022-07-29T19:54:56.923Z,98638.06
2022-07-29T19:57:29.953Z,98638.67
2022-07-29T20:00:15.463Z,98635.34
2022-07-29T20:02:47.601Z,98637.74
2022-07-29T20:05:20.063Z,98644.55
2022-07-29T20:07:52.143Z,98651.46
2022-07-29T20:10:24.754Z,98659.45
2022-07-29T20:12:57.026Z,98655.89
2022-07-29T20:15:29.680Z,98659.80
2022-07-29T20:18:01.674Z,98661.20
2022-07-29T20:20:34.198Z,98664.22
2022-07-29T20:23:06.674Z,98661.21
2022-07-29T20:25:39.490Z,98655.34
2022-07-29T20:28:11.929Z,98644.87
2022-07-29T20:30:47.534Z,98635.25
2022-07-29T20:33:20.260Z,98630.79
2022-07-29T20:35:52.808Z,98624.21
2022-07-29T20:38:25.292Z,98626.00
2022-07-29T20:41:00.498Z,98621.19
2022-07-29T20:43:35.886Z,98624.40
2022-07-29T20:46:11.486Z,98618.58
2022-07-29T20:48:43.665Z,98618.25
2022-07-29T20:51:18.139Z,98615.80
2022-07-29T20:53:52.556Z,98615.16
2022-07-29T20:56:24.524Z,98619.13
2022-07-29T20:58:56.673Z,98618.05
2022-07-29T21:01:29.332Z,98612.41
2022-07-29T21:04:03.214Z,98614.73
2022-07-29T21:06:35.386Z,98607.48
2022-07-29T21:09:07.483Z,98603.81
2022-07-29T21:11:44.529Z,98596.25
2022-07-29T21:14:30.779Z,98593.09
2022-07-29T21:17:06.382Z,98583.73
2022-07-29T21:19:38.726Z,98577.39
2022-07-29T21:22:11.334Z,98574.93
2022-07-29T21:24:43.571Z,98570.34
2022-07-29T21:27:33.174Z,98569.83
2022-07-29T21:30:06.009Z,98570.00
2022-07-29T21:32:38.359Z,98563.30
2022-07-29T21:35:22.366Z,98568.45
2022-07-29T21:38:06.124Z,98577.73
2022-07-29T21:40:38.289Z,98579.34
2022-07-29T21:43:12.856Z,98578.09
2022-07-29T21:45:47.747Z,98573.54
2022-07-29T21:48:21.095Z,98577.11
2022-07-29T21:50:53.903Z,98581.95
2022-07-29T21:53:26.926Z,98579.91
2022-07-29T21:55:59.390Z,98578.39
2022-07-29T21:58:31.597Z,98577.76
2022-07-29T22:01:05.142Z,98576.48
2022-07-29T22:03:37.756Z,98579.71
2022-07-29T22:06:11.272Z,98580.98
2022-07-29T22:08:50.509Z,98575.13
2022-07-29T22:11:23.082Z,98568.05
2022-07-29T22:13:55.320Z,98563.98
2022-07-29T22:16:27.624Z,98561.91
2022-07-29T22:18:59.678Z,98558.92
2022-07-29T22:21:32.367Z,98560.92
2022-07-29T22:24:09.918Z,98560.08
2022-07-29T22:26:42.137Z,98559.21
2022-07-29T22:29:16.872Z,98555.73
2022-07-29T22:31:48.948Z,98555.44
2022-07-29T22:34:23.050Z,98560.98
2022-07-29T22:36:54.970Z,98563.30
2022-07-29T22:39:28.514Z,98564.73
2022-07-29T22:42:00.844Z,98559.07
2022-07-29T22:44:34.538Z,98554.32
2022-07-29T22:47:07.506Z,98548.16
2022-07-29T22:49:39.532Z,98538.63
2022-07-29T22:52:11.805Z,98536.58
2022-07-29T22:54:47.072Z,98536.13
2022-07-29T22:57:20.029Z,98541.66
2022-07-29T22:59:54.335Z,98541.83
2022-07-29T23:02:27.036Z,98538.84
2022-07-29T23:04:59.587Z,98535.33
2022-07-29T23:07:31.955Z,98532.14
2022-07-29T23:10:05.369Z,98529.14
2022-07-29T23:12:37.501Z,98523.48
2022-07-29T23:15:11.047Z,98523.65
2022-07-29T23:17:43.502Z,98522.74
2022-07-29T23:20:16.154Z,98519.57
2022-07-29T23:22:48.241Z,98510.34
2022-07-29T23:25:20.327Z,98508.20
2022-07-29T23:27:52.496Z,98499.03
2022-07-29T23:30:24.550Z,98497.96
2022-07-29T23:32:56.815Z,98496.90
2022-07-29T23:35:28.751Z,98490.54
2022-07-29T23:38:01.096Z,98485.94
2022-07-29T23:40:33.455Z,98480.61
2022-07-29T23:43:08.558Z,98476.02
2022-07-29T23:45:44.539Z,98469.85
2022-07-29T23:48:17.427Z,98468.44
2022-07-29T23:50:50.174Z,98464.93
2022-07-29T23:53:22.575Z,98462.00
2022-07-29T23:55:54.617Z,98455.48
2022-07-29T23:58:27.131Z,98451.62
